Electra, TX (76360)

7:05 PM CST on February 01, 2015 (GMT -0600)
APRSWXNET Electra TX US | Change Station
CLOSE
Current Station
Personal Weather Station
Location: Electra, TX
Elevation: 1240 ft
Nearby Weather Stations

Elev 1240 ft 34.03 °N, 98.91 °W | Updated 33 minutes ago

Clear
Clear
40 °F
Feels Like 34 °F
N
10
Wind Variable Wind from NW
Gusts 16.0 mph

Today
High -- | Low -- °F
--% Chance of Precip.
Yesterday
High -- | Low -- °F
Precip. -- in
7:32 AM 6:05 PM
Waxing Gibbous, 97% visible
Pressure 30.27 in
Visibility 10.0 miles
Clouds Overcast 11000 ft
Windchill 34 °F
Dew Point 24 °F
Humidity 53%
Rainfall 0.05 in
Snow Depth Not available.
UV 0 out of 12
Pollen 5.00 out of 12
Air Quality Not available.
Flu Activity Not available.
METAR KF05 020055Z AUTO 35008KT 10SM OVC110 04/M08 A3027 RMK AO1 T00391077

More Conditions Fewer Conditions

Pressure 30.27 in
Visibility 10.0 miles
Clouds Overcast 11000 ft
Windchill 34 °F
Dew Point 24 °F
Humidity 53%
Rainfall 0.05 in
Snow Depth Not available.
UV 0 out of 12
Pollen 5.00 out of 12
Air Quality Not available.
Flu Activity Not available.
METAR KF05 020055Z AUTO 35008KT 10SM OVC110 04/M08 A3027 RMK AO1 T00391077

More Conditions Fewer Conditions

10-Day Weather Forecast

Almanac

Astronomy

Feb. 01, 2015 Rise Set
Actual Time
Civil Twilight
Nautical Twilight
Astronomical Twilight
Moon
Length of Visible Light
Length of Day
Tomorrow will be .
, % of the Moon is Illuminated

Today's Extremes

State Highs State Lows

Community

WunderPhotos

Upload Photos

1,792,639 photos uploaded!

WunderBlogs® & News

Nearby

Air Quality

  Air Quality AQ Index Pollutant
Not available.

Snow Depth

Station Depth Elevation

Earthquake Activity

City Distance Mag. Time & Date
Minimum magnitude displayed is 2.5.

Coastal Water Temperatures

Place Temperature

Nearby Weather Stations